Janika — V2YK9 — position and weather

sailwx.info

Track history (hours):
 
Tides and Currents Weather Stations Pressure Air Temp Water Temp Dewpoint Dewpoint Depression Visibility Wind Speed Wind Dir Waves Ship Positions

Janika

Last reported at 2016-Apr-24 21:19 UTC. Time now 2016-May-04 09:52 UTC.
Position N 11°04' W 061°44'.
Warning: this ship's position is 9 days out of date.

; draft 2.6 m.

Type: Tug. MMSI: 305732000.

Date/timePositionNaut miles runAvg speedWind from/ knotsBaromVisibWave heightAir tempDewpointWater temp
2016-Apr-24 21:19N 11°04' W 061°44'4 5.9
2016-Apr-24 20:33N 10°60' W 061°42'6 5.9
2016-Apr-24 19:33N 10°54' W 061°41'6 5.6
2016-Apr-24 18:27N 10°48' W 061°41'5 4.9
2016-Apr-24 17:23N 10°42' W 061°40'4 5.2
2016-Apr-24 16:34N 10°39' W 061°38'5 5.0
2016-Apr-24 15:34N 10°39' W 061°32'2 1.6
2016-Apr-24 14:33N 10°39' W 061°31'0 0.0
2016-Apr-24 13:33N 10°39' W 061°31'0 0.0
2016-Apr-24 12:33N 10°39' W 061°31'0 0.0
2016-Apr-24 11:33N 10°39' W 061°31'0 0.0
2016-Apr-24 10:33N 10°39' W 061°31'0 0.0
2016-Apr-24 09:34N 10°39' W 061°31'0 0.0
2016-Apr-24 08:33N 10°39' W 061°31'0 0.0
2016-Apr-24 07:33N 10°39' W 061°31'0 0.0
2016-Apr-24 06:33N 10°39' W 061°31'0 0.0
2016-Apr-24 05:34N 10°39' W 061°31'0 0.0
2016-Apr-24 04:33N 10°39' W 061°31'0 0.0
2016-Apr-24 03:33N 10°39' W 061°31'0 0.0
2016-Apr-24 02:33N 10°39' W 061°31'0 0.0
2016-Apr-24 01:33N 10°39' W 061°31'0 0.0
2016-Apr-24 00:33N 10°39' W 061°31'0 0.0
2016-Apr-23 23:33N 10°39' W 061°31'0 0.0
2016-Apr-23 22:33N 10°39' W 061°31'0 0.0
2016-Apr-23 21:34N 10°39' W 061°31'0 0.0
2016-Apr-23 20:34N 10°39' W 061°31'0 0.0
2016-Apr-23 19:33N 10°39' W 061°31'0 0.0
2016-Apr-23 18:34N 10°39' W 061°31'0 0.0
2016-Apr-23 17:33N 10°39' W 061°31'0 0.0
2016-Apr-23 16:33N 10°39' W 061°31'0 0.0
2016-Apr-23 15:34N 10°39' W 061°31'0 0.0
2016-Apr-23 14:33N 10°39' W 061°31'0 0.0
2016-Apr-23 13:33N 10°39' W 061°31'0 0.0
2016-Apr-23 12:33N 10°39' W 061°31'0 0.0
2016-Apr-23 11:33N 10°39' W 061°31'0 0.0
2016-Apr-23 10:33N 10°39' W 061°31'0 0.0
2016-Apr-23 09:33N 10°39' W 061°31'0 0.0
2016-Apr-23 08:34N 10°39' W 061°31'0 0.0
2016-Apr-23 07:34N 10°39' W 061°31'0 0.0
2016-Apr-23 06:34N 10°39' W 061°31'0 0.0
2016-Apr-23 05:34N 10°39' W 061°31'0 0.0
2016-Apr-23 04:33N 10°39' W 061°31'0 0.0
2016-Apr-23 03:34N 10°39' W 061°31'0 0.0
2016-Apr-23 02:33N 10°39' W 061°31'0 0.0
2016-Apr-23 01:33N 10°39' W 061°31'0 0.0
2016-Apr-23 00:33N 10°39' W 061°31'0 0.0
2016-Apr-22 23:34N 10°39' W 061°31'0 0.0
2016-Apr-22 22:33N 10°39' W 061°31'0 0.0
2016-Apr-22 21:34N 10°39' W 061°31'0 0.0
2016-Apr-22 20:34N 10°39' W 061°31'0 0.0
2016-Apr-22 19:33N 10°39' W 061°31'0 0.0
2016-Apr-22 18:33N 10°39' W 061°31'0 0.0
2016-Apr-22 17:33N 10°39' W 061°31'0 0.0
2016-Apr-22 16:33N 10°39' W 061°31'0 0.0
2016-Apr-22 15:33N 10°39' W 061°31'0 0.0
2016-Apr-22 14:34N 10°39' W 061°31'0 0.0
2016-Apr-22 13:33N 10°39' W 061°31'0 0.0
2016-Apr-22 12:34N 10°39' W 061°31'0 0.0
2016-Apr-22 11:33N 10°39' W 061°31'0 0.0
2016-Apr-22 10:33N 10°39' W 061°31'0 0.0
2016-Apr-22 09:34N 10°39' W 061°31'0 0.0
2016-Apr-22 08:33N 10°39' W 061°31'0 0.0
2016-Apr-22 07:34N 10°39' W 061°31'0 0.0
2016-Apr-22 06:34N 10°39' W 061°31'0 0.0
2016-Apr-22 05:33N 10°39' W 061°31'0 0.0
2016-Apr-22 04:33N 10°39' W 061°31'0 0.0
2016-Apr-22 03:34N 10°39' W 061°31'0 0.0
2016-Apr-22 02:33N 10°39' W 061°31'0 0.0
2016-Apr-22 01:33N 10°39' W 061°31'0 0.0
2016-Apr-22 00:33N 10°39' W 061°31'0 0.0
2016-Apr-21 23:34N 10°39' W 061°31'0 0.0
2016-Apr-21 22:33N 10°39' W 061°31'0 0.0
2016-Apr-21 21:34N 10°39' W 061°31'0 0.0
2016-Apr-21 20:33N 10°39' W 061°31'0 0.0
2016-Apr-21 19:33N 10°39' W 061°31'0 0.0
2016-Apr-21 18:33N 10°39' W 061°31'0 0.0
2016-Apr-21 17:33N 10°39' W 061°31'0 0.0
2016-Apr-21 16:33N 10°39' W 061°31'0 0.0
2016-Apr-21 15:34N 10°39' W 061°31'0 0.0
2016-Apr-21 14:33N 10°39' W 061°31'0 0.0
2016-Apr-21 13:33N 10°39' W 061°31'0 0.0
2016-Apr-21 12:34N 10°39' W 061°31'0 0.0
2016-Apr-21 11:33N 10°39' W 061°31'0 0.0
2016-Apr-21 10:33N 10°39' W 061°31'0 0.0
2016-Apr-21 09:33N 10°39' W 061°31'0 0.0
2016-Apr-21 08:33N 10°39' W 061°31'0 0.0
2016-Apr-21 07:34N 10°39' W 061°31'0 0.0
2016-Apr-21 06:33N 10°39' W 061°31'0 0.0
2016-Apr-21 05:33N 10°39' W 061°31'0 0.0
2016-Apr-21 04:33N 10°39' W 061°31'0 0.0
2016-Apr-21 03:33N 10°39' W 061°31'0 0.0
2016-Apr-21 02:34N 10°39' W 061°31'0 0.0
2016-Apr-21 01:34N 10°39' W 061°31'0 0.0
2016-Apr-21 00:34N 10°39' W 061°31'0 0.0
2016-Apr-20 23:33N 10°39' W 061°31'0 0.0
2016-Apr-20 22:33N 10°39' W 061°31'0 0.0
2016-Apr-20 21:33N 10°39' W 061°31'0 0.0
2016-Apr-20 20:33N 10°39' W 061°31'0 0.0
2016-Apr-20 19:34N 10°39' W 061°31'0 0.0
2016-Apr-20 18:34N 10°39' W 061°31'0 0.0
2016-Apr-20 17:34N 10°39' W 061°31'0 0.0
2016-Apr-20 16:34N 10°39' W 061°31'0 0.0
2016-Apr-20 15:33N 10°39' W 061°31'0 0.0
2016-Apr-20 14:33N 10°39' W 061°31'0 0.0
2016-Apr-20 13:34N 10°39' W 061°31'0 0.0
2016-Apr-20 12:33N 10°39' W 061°31'0 0.0
2016-Apr-20 11:33N 10°39' W 061°31'0 0.0
2016-Apr-20 10:33N 10°39' W 061°31'0 0.0
2016-Apr-20 09:33N 10°39' W 061°31'0 0.0
2016-Apr-20 08:33N 10°39' W 061°31'0 0.0
2016-Apr-20 07:33N 10°39' W 061°31'0 0.0
2016-Apr-20 06:33N 10°39' W 061°31'0 0.0
2016-Apr-20 05:33N 10°39' W 061°31'0 0.0
2016-Apr-20 04:33N 10°39' W 061°31'0 0.0
2016-Apr-20 03:33N 10°39' W 061°31'0 0.0
2016-Apr-20 02:33N 10°39' W 061°31'0 0.0
2016-Apr-20 01:33N 10°39' W 061°31'0 0.0
2016-Apr-20 00:26N 10°39' W 061°31'0 0.0
2016-Apr-19 23:33N 10°39' W 061°31'0 0.0
2016-Apr-19 22:33N 10°39' W 061°31'0 0.0
2016-Apr-19 21:33N 10°39' W 061°31'0 0.0
2016-Apr-19 20:34N 10°39' W 061°31'0 0.0
2016-Apr-19 19:33N 10°39' W 061°31'0 0.0
2016-Apr-19 18:34N 10°39' W 061°31'0 0.0
2016-Apr-19 17:33N 10°39' W 061°31'0 0.0
2016-Apr-19 16:34N 10°39' W 061°31'0 0.0
2016-Apr-19 15:34N 10°39' W 061°31'0 0.0
2016-Apr-19 14:33N 10°39' W 061°31'0 0.0
2016-Apr-19 13:33N 10°39' W 061°31'0 0.0
2016-Apr-19 12:34N 10°39' W 061°31'0 0.0
2016-Apr-19 11:33N 10°39' W 061°31'0 0.0
2016-Apr-19 10:34N 10°39' W 061°31'0 0.0
2016-Apr-19 09:34N 10°39' W 061°31'0 0.0
2016-Apr-19 08:33N 10°39' W 061°31'0 0.0
2016-Apr-19 07:33N 10°39' W 061°31'0 0.0
2016-Apr-19 06:33N 10°39' W 061°31'0 0.0
2016-Apr-19 05:34N 10°39' W 061°31'0 0.0
2016-Apr-19 04:33N 10°39' W 061°31'0 0.0
2016-Apr-19 03:33N 10°39' W 061°31'0 0.0
2016-Apr-19 02:33N 10°39' W 061°31'0 0.0
2016-Apr-19 01:34N 10°39' W 061°31'0 0.0
2016-Apr-19 00:33N 10°39' W 061°31'0 0.0
2016-Apr-18 23:33N 10°39' W 061°31'0 0.0
2016-Apr-18 22:34N 10°39' W 061°31'0 0.0
2016-Apr-18 21:33N 10°39' W 061°31'0 0.0
2016-Apr-18 20:33N 10°39' W 061°31'0 0.0
2016-Apr-18 19:33N 10°39' W 061°31'0 0.0
2016-Apr-18 18:33N 10°39' W 061°31'0 0.0
2016-Apr-18 17:33N 10°39' W 061°31'0 0.0
2016-Apr-18 16:33N 10°39' W 061°31'0 0.0
2016-Apr-18 15:33N 10°39' W 061°31'0 0.0
2016-Apr-18 14:34N 10°39' W 061°31'0 0.0
2016-Apr-18 13:33N 10°39' W 061°31'0 0.0
2016-Apr-18 12:33N 10°39' W 061°31'0 0.0
2016-Apr-18 11:34N 10°39' W 061°31'0 0.0
2016-Apr-18 10:33N 10°39' W 061°31'0 0.0
2016-Apr-18 09:33N 10°39' W 061°31'0 0.0
2016-Apr-18 08:34N 10°39' W 061°31'0 0.0
2016-Apr-18 07:33N 10°39' W 061°31'0 0.0
2016-Apr-18 06:33N 10°39' W 061°31'0 0.0
2016-Apr-18 05:34N 10°39' W 061°31'0 0.0
2016-Apr-18 04:33N 10°39' W 061°31'0 0.0
2016-Apr-18 03:33N 10°39' W 061°31'0 0.0
2016-Apr-18 02:33N 10°39' W 061°31'0 0.0
2016-Apr-18 01:33N 10°39' W 061°31'0 0.0
2016-Apr-18 00:33N 10°39' W 061°31'0 0.0
2016-Apr-17 23:34N 10°39' W 061°31'0 0.0
2016-Apr-17 22:33N 10°39' W 061°31'0 0.0
2016-Apr-17 21:33N 10°39' W 061°31'0 0.0
2016-Apr-17 20:04N 10°39' W 061°31'0 0.0
2016-Apr-17 19:34N 10°39' W 061°31'0 0.0
2016-Apr-17 18:33N 10°39' W 061°31'0 0.0
2016-Apr-17 17:33N 10°39' W 061°31'0 0.0
2016-Apr-17 16:34N 10°39' W 061°31'0 0.0
2016-Apr-17 15:33N 10°39' W 061°31'0 0.0
2016-Apr-17 14:33N 10°39' W 061°31'0 0.0
2016-Apr-17 13:33N 10°39' W 061°31'0 0.0
2016-Apr-17 12:34N 10°39' W 061°31'0 0.0
2016-Apr-17 11:33N 10°39' W 061°31'0 0.0
2016-Apr-17 10:34N 10°39' W 061°31'0 0.0
2016-Apr-17 09:33N 10°39' W 061°31'0 0.0
2016-Apr-17 08:33N 10°39' W 061°31'0 0.0
2016-Apr-17 07:33N 10°39' W 061°31'0 0.0
2016-Apr-17 06:33N 10°39' W 061°31'0 0.0
2016-Apr-17 05:33N 10°39' W 061°31'0 0.0
2016-Apr-17 04:34N 10°39' W 061°31'0 0.0
2016-Apr-17 03:33N 10°39' W 061°31'0 0.0
2016-Apr-17 02:34N 10°39' W 061°31'0 0.0
2016-Apr-17 01:33N 10°39' W 061°31'0 0.0
2016-Apr-17 00:33N 10°39' W 061°31'0 0.0
2016-Apr-16 23:33N 10°39' W 061°31'0 0.0
2016-Apr-16 22:34N 10°39' W 061°31'0 0.0
2016-Apr-16 21:33N 10°39' W 061°31'0 0.0
2016-Apr-16 20:33N 10°39' W 061°31'0 0.0
2016-Apr-16 19:33N 10°39' W 061°31'0 0.0
2016-Apr-16 18:33N 10°39' W 061°31'0 0.1
2016-Apr-16 17:33N 10°39' W 061°31'0 0.0
2016-Apr-16 16:33N 10°39' W 061°31'0 0.0
2016-Apr-16 15:33N 10°39' W 061°31'0 0.0
2016-Apr-16 14:34N 10°39' W 061°31'0 0.0
2016-Apr-16 13:34N 10°39' W 061°31'0 0.0
2016-Apr-16 12:33N 10°39' W 061°31'0 0.0
2016-Apr-16 11:33N 10°39' W 061°31'0 0.0
2016-Apr-16 10:33N 10°39' W 061°31'0 0.0
2016-Apr-16 09:33N 10°39' W 061°31'0 0.0
2016-Apr-16 08:33N 10°39' W 061°31'0 0.0
2016-Apr-16 07:34N 10°39' W 061°31'0 0.0
2016-Apr-16 06:33N 10°39' W 061°31'0 0.0
2016-Apr-16 05:34N 10°39' W 061°31'0 0.0
2016-Apr-16 04:34N 10°39' W 061°31'0 0.0
2016-Apr-16 03:33N 10°39' W 061°31'0 0.0
2016-Apr-16 02:33N 10°39' W 061°31'0 0.0
2016-Apr-16 01:33N 10°39' W 061°31'0 0.0
2016-Apr-16 00:33N 10°39' W 061°31'0 0.0
2016-Apr-15 23:34N 10°39' W 061°31'0 0.0
2016-Apr-15 22:34N 10°39' W 061°31'0 0.0
2016-Apr-15 21:34N 10°39' W 061°31'0 0.0
2016-Apr-15 20:33N 10°39' W 061°31'0 0.0
2016-Apr-15 19:33N 10°39' W 061°31'0 0.0
2016-Apr-15 18:33N 10°39' W 061°31'0 0.0
2016-Apr-15 17:33N 10°39' W 061°31'0 0.0
2016-Apr-15 16:33N 10°39' W 061°31'0 0.0
2016-Apr-15 15:33N 10°39' W 061°31'0 0.0
2016-Apr-15 14:33N 10°39' W 061°31'0 0.0
2016-Apr-15 13:34N 10°39' W 061°31'0 0.0
2016-Apr-15 12:34N 10°39' W 061°31'0 0.0
2016-Apr-15 11:33N 10°39' W 061°31'0 0.0
2016-Apr-15 10:33N 10°39' W 061°31'0 0.0
2016-Apr-15 09:33N 10°39' W 061°31'0 0.0
2016-Apr-15 08:33N 10°39' W 061°31'0 0.0
2016-Apr-15 07:33N 10°39' W 061°31'0 0.0
2016-Apr-15 06:33N 10°39' W 061°31'0 0.0
2016-Apr-15 05:34N 10°39' W 061°31'0 0.0
2016-Apr-15 04:33N 10°39' W 061°31'0 0.0
2016-Apr-15 03:33N 10°39' W 061°31'0 0.0
2016-Apr-15 02:33N 10°39' W 061°31'0 0.0
2016-Apr-15 01:33N 10°39' W 061°31'0 0.0
2016-Apr-15 00:33N 10°39' W 061°31'0 0.0
2016-Apr-14 23:33N 10°39' W 061°31'0 0.0
2016-Apr-14 22:33N 10°39' W 061°31'0 0.0
2016-Apr-14 21:33N 10°39' W 061°31'  
Track history (hours):
 
Tides and Currents Weather Stations Pressure Air Temp Water Temp Dewpoint Dewpoint Depression Visibility Wind Speed Wind Dir Waves Ship Positions

Janika

Last reported at 2016-Apr-24 21:19 UTC. Time now 2016-May-04 09:52 UTC.
Position N 11°04' W 061°44'.
Warning: this ship's position is 9 days out of date.

; draft 2.6 m.

Type: Tug. MMSI: 305732000.

Date/timePositionNaut miles runAvg speedWind from/ knotsBaromVisibWave heightAir tempDewpointWater temp
2016-Apr-24 21:19N 11°04' W 061°44'4 5.9
2016-Apr-24 20:33N 10°60' W 061°42'6 5.9
2016-Apr-24 19:33N 10°54' W 061°41'6 5.6
2016-Apr-24 18:27N 10°48' W 061°41'5 4.9
2016-Apr-24 17:23N 10°42' W 061°40'4 5.2
2016-Apr-24 16:34N 10°39' W 061°38'5 5.0
2016-Apr-24 15:34N 10°39' W 061°32'2 1.6
2016-Apr-24 14:33N 10°39' W 061°31'0 0.0
2016-Apr-24 13:33N 10°39' W 061°31'0 0.0
2016-Apr-24 12:33N 10°39' W 061°31'0 0.0
2016-Apr-24 11:33N 10°39' W 061°31'0 0.0
2016-Apr-24 10:33N 10°39' W 061°31'0 0.0
2016-Apr-24 09:34N 10°39' W 061°31'0 0.0
2016-Apr-24 08:33N 10°39' W 061°31'0 0.0
2016-Apr-24 07:33N 10°39' W 061°31'0 0.0
2016-Apr-24 06:33N 10°39' W 061°31'0 0.0
2016-Apr-24 05:34N 10°39' W 061°31'0 0.0
2016-Apr-24 04:33N 10°39' W 061°31'0 0.0
2016-Apr-24 03:33N 10°39' W 061°31'0 0.0
2016-Apr-24 02:33N 10°39' W 061°31'0 0.0
2016-Apr-24 01:33N 10°39' W 061°31'0 0.0
2016-Apr-24 00:33N 10°39' W 061°31'0 0.0
2016-Apr-23 23:33N 10°39' W 061°31'0 0.0
2016-Apr-23 22:33N 10°39' W 061°31'0 0.0
2016-Apr-23 21:34N 10°39' W 061°31'0 0.0
2016-Apr-23 20:34N 10°39' W 061°31'0 0.0
2016-Apr-23 19:33N 10°39' W 061°31'0 0.0
2016-Apr-23 18:34N 10°39' W 061°31'0 0.0
2016-Apr-23 17:33N 10°39' W 061°31'0 0.0
2016-Apr-23 16:33N 10°39' W 061°31'0 0.0
2016-Apr-23 15:34N 10°39' W 061°31'0 0.0
2016-Apr-23 14:33N 10°39' W 061°31'0 0.0
2016-Apr-23 13:33N 10°39' W 061°31'0 0.0
2016-Apr-23 12:33N 10°39' W 061°31'0 0.0
2016-Apr-23 11:33N 10°39' W 061°31'0 0.0
2016-Apr-23 10:33N 10°39' W 061°31'0 0.0
2016-Apr-23 09:33N 10°39' W 061°31'0 0.0
2016-Apr-23 08:34N 10°39' W 061°31'0 0.0
2016-Apr-23 07:34N 10°39' W 061°31'0 0.0
2016-Apr-23 06:34N 10°39' W 061°31'0 0.0
2016-Apr-23 05:34N 10°39' W 061°31'0 0.0
2016-Apr-23 04:33N 10°39' W 061°31'0 0.0
2016-Apr-23 03:34N 10°39' W 061°31'0 0.0
2016-Apr-23 02:33N 10°39' W 061°31'0 0.0
2016-Apr-23 01:33N 10°39' W 061°31'0 0.0
2016-Apr-23 00:33N 10°39' W 061°31'0 0.0
2016-Apr-22 23:34N 10°39' W 061°31'0 0.0
2016-Apr-22 22:33N 10°39' W 061°31'0 0.0
2016-Apr-22 21:34N 10°39' W 061°31'0 0.0
2016-Apr-22 20:34N 10°39' W 061°31'0 0.0
2016-Apr-22 19:33N 10°39' W 061°31'0 0.0
2016-Apr-22 18:33N 10°39' W 061°31'0 0.0
2016-Apr-22 17:33N 10°39' W 061°31'0 0.0
2016-Apr-22 16:33N 10°39' W 061°31'0 0.0
2016-Apr-22 15:33N 10°39' W 061°31'0 0.0
2016-Apr-22 14:34N 10°39' W 061°31'0 0.0
2016-Apr-22 13:33N 10°39' W 061°31'0 0.0
2016-Apr-22 12:34N 10°39' W 061°31'0 0.0
2016-Apr-22 11:33N 10°39' W 061°31'0 0.0
2016-Apr-22 10:33N 10°39' W 061°31'0 0.0
2016-Apr-22 09:34N 10°39' W 061°31'0 0.0
2016-Apr-22 08:33N 10°39' W 061°31'0 0.0
2016-Apr-22 07:34N 10°39' W 061°31'0 0.0
2016-Apr-22 06:34N 10°39' W 061°31'0 0.0
2016-Apr-22 05:33N 10°39' W 061°31'0 0.0
2016-Apr-22 04:33N 10°39' W 061°31'0 0.0
2016-Apr-22 03:34N 10°39' W 061°31'0 0.0
2016-Apr-22 02:33N 10°39' W 061°31'0 0.0
2016-Apr-22 01:33N 10°39' W 061°31'0 0.0
2016-Apr-22 00:33N 10°39' W 061°31'0 0.0
2016-Apr-21 23:34N 10°39' W 061°31'0 0.0
2016-Apr-21 22:33N 10°39' W 061°31'0 0.0
2016-Apr-21 21:34N 10°39' W 061°31'0 0.0
2016-Apr-21 20:33N 10°39' W 061°31'0 0.0
2016-Apr-21 19:33N 10°39' W 061°31'0 0.0
2016-Apr-21 18:33N 10°39' W 061°31'0 0.0
2016-Apr-21 17:33N 10°39' W 061°31'0 0.0
2016-Apr-21 16:33N 10°39' W 061°31'0 0.0
2016-Apr-21 15:34N 10°39' W 061°31'0 0.0
2016-Apr-21 14:33N 10°39' W 061°31'0 0.0
2016-Apr-21 13:33N 10°39' W 061°31'0 0.0
2016-Apr-21 12:34N 10°39' W 061°31'0 0.0
2016-Apr-21 11:33N 10°39' W 061°31'0 0.0
2016-Apr-21 10:33N 10°39' W 061°31'0 0.0
2016-Apr-21 09:33N 10°39' W 061°31'0 0.0
2016-Apr-21 08:33N 10°39' W 061°31'0 0.0
2016-Apr-21 07:34N 10°39' W 061°31'0 0.0
2016-Apr-21 06:33N 10°39' W 061°31'0 0.0
2016-Apr-21 05:33N 10°39' W 061°31'0 0.0
2016-Apr-21 04:33N 10°39' W 061°31'0 0.0
2016-Apr-21 03:33N 10°39' W 061°31'0 0.0
2016-Apr-21 02:34N 10°39' W 061°31'0 0.0
2016-Apr-21 01:34N 10°39' W 061°31'0 0.0
2016-Apr-21 00:34N 10°39' W 061°31'0 0.0
2016-Apr-20 23:33N 10°39' W 061°31'0 0.0
2016-Apr-20 22:33N 10°39' W 061°31'0 0.0
2016-Apr-20 21:33N 10°39' W 061°31'0 0.0
2016-Apr-20 20:33N 10°39' W 061°31'0 0.0
2016-Apr-20 19:34N 10°39' W 061°31'0 0.0
2016-Apr-20 18:34N 10°39' W 061°31'0 0.0
2016-Apr-20 17:34N 10°39' W 061°31'0 0.0
2016-Apr-20 16:34N 10°39' W 061°31'0 0.0
2016-Apr-20 15:33N 10°39' W 061°31'0 0.0
2016-Apr-20 14:33N 10°39' W 061°31'0 0.0
2016-Apr-20 13:34N 10°39' W 061°31'0 0.0
2016-Apr-20 12:33N 10°39' W 061°31'0 0.0
2016-Apr-20 11:33N 10°39' W 061°31'0 0.0
2016-Apr-20 10:33N 10°39' W 061°31'0 0.0
2016-Apr-20 09:33N 10°39' W 061°31'0 0.0
2016-Apr-20 08:33N 10°39' W 061°31'0 0.0
2016-Apr-20 07:33N 10°39' W 061°31'0 0.0
2016-Apr-20 06:33N 10°39' W 061°31'0 0.0
2016-Apr-20 05:33N 10°39' W 061°31'0 0.0
2016-Apr-20 04:33N 10°39' W 061°31'0 0.0
2016-Apr-20 03:33N 10°39' W 061°31'0 0.0
2016-Apr-20 02:33N 10°39' W 061°31'0 0.0
2016-Apr-20 01:33N 10°39' W 061°31'0 0.0
2016-Apr-20 00:26N 10°39' W 061°31'0 0.0
2016-Apr-19 23:33N 10°39' W 061°31'0 0.0
2016-Apr-19 22:33N 10°39' W 061°31'0 0.0
2016-Apr-19 21:33N 10°39' W 061°31'0 0.0
2016-Apr-19 20:34N 10°39' W 061°31'0 0.0
2016-Apr-19 19:33N 10°39' W 061°31'0 0.0
2016-Apr-19 18:34N 10°39' W 061°31'0 0.0
2016-Apr-19 17:33N 10°39' W 061°31'0 0.0
2016-Apr-19 16:34N 10°39' W 061°31'0 0.0
2016-Apr-19 15:34N 10°39' W 061°31'0 0.0
2016-Apr-19 14:33N 10°39' W 061°31'0 0.0
2016-Apr-19 13:33N 10°39' W 061°31'0 0.0
2016-Apr-19 12:34N 10°39' W 061°31'0 0.0
2016-Apr-19 11:33N 10°39' W 061°31'0 0.0
2016-Apr-19 10:34N 10°39' W 061°31'0 0.0
2016-Apr-19 09:34N 10°39' W 061°31'0 0.0
2016-Apr-19 08:33N 10°39' W 061°31'0 0.0
2016-Apr-19 07:33N 10°39' W 061°31'0 0.0
2016-Apr-19 06:33N 10°39' W 061°31'0 0.0
2016-Apr-19 05:34N 10°39' W 061°31'0 0.0
2016-Apr-19 04:33N 10°39' W 061°31'0 0.0
2016-Apr-19 03:33N 10°39' W 061°31'0 0.0
2016-Apr-19 02:33N 10°39' W 061°31'0 0.0
2016-Apr-19 01:34N 10°39' W 061°31'0 0.0
2016-Apr-19 00:33N 10°39' W 061°31'0 0.0
2016-Apr-18 23:33N 10°39' W 061°31'0 0.0
2016-Apr-18 22:34N 10°39' W 061°31'0 0.0
2016-Apr-18 21:33N 10°39' W 061°31'0 0.0
2016-Apr-18 20:33N 10°39' W 061°31'0 0.0
2016-Apr-18 19:33N 10°39' W 061°31'0 0.0
2016-Apr-18 18:33N 10°39' W 061°31'0 0.0
2016-Apr-18 17:33N 10°39' W 061°31'0 0.0
2016-Apr-18 16:33N 10°39' W 061°31'0 0.0
2016-Apr-18 15:33N 10°39' W 061°31'0 0.0
2016-Apr-18 14:34N 10°39' W 061°31'0 0.0
2016-Apr-18 13:33N 10°39' W 061°31'0 0.0
2016-Apr-18 12:33N 10°39' W 061°31'0 0.0
2016-Apr-18 11:34N 10°39' W 061°31'0 0.0
2016-Apr-18 10:33N 10°39' W 061°31'0 0.0
2016-Apr-18 09:33N 10°39' W 061°31'0 0.0
2016-Apr-18 08:34N 10°39' W 061°31'0 0.0
2016-Apr-18 07:33N 10°39' W 061°31'0 0.0
2016-Apr-18 06:33N 10°39' W 061°31'0 0.0
2016-Apr-18 05:34N 10°39' W 061°31'0 0.0
2016-Apr-18 04:33N 10°39' W 061°31'0 0.0
2016-Apr-18 03:33N 10°39' W 061°31'0 0.0
2016-Apr-18 02:33N 10°39' W 061°31'0 0.0
2016-Apr-18 01:33N 10°39' W 061°31'0 0.0
2016-Apr-18 00:33N 10°39' W 061°31'0 0.0
2016-Apr-17 23:34N 10°39' W 061°31'0 0.0
2016-Apr-17 22:33N 10°39' W 061°31'0 0.0
2016-Apr-17 21:33N 10°39' W 061°31'0 0.0
2016-Apr-17 20:04N 10°39' W 061°31'0 0.0
2016-Apr-17 19:34N 10°39' W 061°31'0 0.0
2016-Apr-17 18:33N 10°39' W 061°31'0 0.0
2016-Apr-17 17:33N 10°39' W 061°31'0 0.0
2016-Apr-17 16:34N 10°39' W 061°31'0 0.0
2016-Apr-17 15:33N 10°39' W 061°31'0 0.0
2016-Apr-17 14:33N 10°39' W 061°31'0 0.0
2016-Apr-17 13:33N 10°39' W 061°31'0 0.0
2016-Apr-17 12:34N 10°39' W 061°31'0 0.0
2016-Apr-17 11:33N 10°39' W 061°31'0 0.0
2016-Apr-17 10:34N 10°39' W 061°31'0 0.0
2016-Apr-17 09:33N 10°39' W 061°31'0 0.0
2016-Apr-17 08:33N 10°39' W 061°31'0 0.0
2016-Apr-17 07:33N 10°39' W 061°31'0 0.0
2016-Apr-17 06:33N 10°39' W 061°31'0 0.0
2016-Apr-17 05:33N 10°39' W 061°31'0 0.0
2016-Apr-17 04:34N 10°39' W 061°31'0 0.0
2016-Apr-17 03:33N 10°39' W 061°31'0 0.0
2016-Apr-17 02:34N 10°39' W 061°31'0 0.0
2016-Apr-17 01:33N 10°39' W 061°31'0 0.0
2016-Apr-17 00:33N 10°39' W 061°31'0 0.0
2016-Apr-16 23:33N 10°39' W 061°31'0 0.0
2016-Apr-16 22:34N 10°39' W 061°31'0 0.0
2016-Apr-16 21:33N 10°39' W 061°31'0 0.0
2016-Apr-16 20:33N 10°39' W 061°31'0 0.0
2016-Apr-16 19:33N 10°39' W 061°31'0 0.0
2016-Apr-16 18:33N 10°39' W 061°31'0 0.1
2016-Apr-16 17:33N 10°39' W 061°31'0 0.0
2016-Apr-16 16:33N 10°39' W 061°31'0 0.0
2016-Apr-16 15:33N 10°39' W 061°31'0 0.0
2016-Apr-16 14:34N 10°39' W 061°31'0 0.0
2016-Apr-16 13:34N 10°39' W 061°31'0 0.0
2016-Apr-16 12:33N 10°39' W 061°31'0 0.0
2016-Apr-16 11:33N 10°39' W 061°31'0 0.0
2016-Apr-16 10:33N 10°39' W 061°31'0 0.0
2016-Apr-16 09:33N 10°39' W 061°31'0 0.0
2016-Apr-16 08:33N 10°39' W 061°31'0 0.0
2016-Apr-16 07:34N 10°39' W 061°31'0 0.0
2016-Apr-16 06:33N 10°39' W 061°31'0 0.0
2016-Apr-16 05:34N 10°39' W 061°31'0 0.0
2016-Apr-16 04:34N 10°39' W 061°31'0 0.0
2016-Apr-16 03:33N 10°39' W 061°31'0 0.0
2016-Apr-16 02:33N 10°39' W 061°31'0 0.0
2016-Apr-16 01:33N 10°39' W 061°31'0 0.0
2016-Apr-16 00:33N 10°39' W 061°31'0 0.0
2016-Apr-15 23:34N 10°39' W 061°31'0 0.0
2016-Apr-15 22:34N 10°39' W 061°31'0 0.0
2016-Apr-15 21:34N 10°39' W 061°31'0 0.0
2016-Apr-15 20:33N 10°39' W 061°31'0 0.0
2016-Apr-15 19:33N 10°39' W 061°31'0 0.0
2016-Apr-15 18:33N 10°39' W 061°31'0 0.0
2016-Apr-15 17:33N 10°39' W 061°31'0 0.0
2016-Apr-15 16:33N 10°39' W 061°31'0 0.0
2016-Apr-15 15:33N 10°39' W 061°31'0 0.0
2016-Apr-15 14:33N 10°39' W 061°31'0 0.0
2016-Apr-15 13:34N 10°39' W 061°31'0 0.0
2016-Apr-15 12:34N 10°39' W 061°31'0 0.0
2016-Apr-15 11:33N 10°39' W 061°31'0 0.0
2016-Apr-15 10:33N 10°39' W 061°31'0 0.0
2016-Apr-15 09:33N 10°39' W 061°31'0 0.0
2016-Apr-15 08:33N 10°39' W 061°31'0 0.0
2016-Apr-15 07:33N 10°39' W 061°31'0 0.0
2016-Apr-15 06:33N 10°39' W 061°31'0 0.0
2016-Apr-15 05:34N 10°39' W 061°31'0 0.0
2016-Apr-15 04:33N 10°39' W 061°31'0 0.0
2016-Apr-15 03:33N 10°39' W 061°31'0 0.0
2016-Apr-15 02:33N 10°39' W 061°31'0 0.0
2016-Apr-15 01:33N 10°39' W 061°31'0 0.0
2016-Apr-15 00:33N 10°39' W 061°31'0 0.0
2016-Apr-14 23:33N 10°39' W 061°31'0 0.0
2016-Apr-14 22:33N 10°39' W 061°31'0 0.0
2016-Apr-14 21:33N 10°39' W 061°31'  

Dump ship's entire track history